Time;durP1;ratioP1;P1;durP2;ratioP2;P2;SDS_P1;SDS_P2;PMS_P1;PMS_P2;Temp;Humidity;BMP_temperature;BMP_pressure;BME280_temperature;BME280_humidity;BME280_pressure;Samples;Min_cycle;Max_cycle;Signal;HPM_P1;HPM_P2
2022/06/25 00:02:09;;;;;;;11.07;1.40;;;;;;;10.99;100.00;99265.31;6196190;23;20000;-77
2022/06/25 00:07:19;;;;;;;9.82;2.08;;;;;;;10.95;100.00;99261.53;6177129;23;20119;-78
2022/06/25 00:09:44;;;;;;;11.23;1.48;;;;;;;10.86;100.00;99260.56;6168563;23;20012;-77
2022/06/25 00:14:54;;;;;;;9.47;1.40;;;;;;;10.83;100.00;99264.72;6198490;23;20015;-77
2022/06/25 00:17:20;;;;;;;13.10;1.50;;;;;;;10.77;100.00;99267.81;6220702;23;20483;-75
2022/06/25 00:19:46;;;;;;;2.78;0.90;;;;;;;10.75;100.00;99272.78;6170213;23;20058;-76
2022/06/25 00:22:11;;;;;;;9.50;1.30;;;;;;;10.73;100.00;99264.06;6220087;23;20468;-76
2022/06/25 00:24:37;;;;;;;8.13;1.33;;;;;;;10.76;100.00;99271.66;6196529;23;20007;-76
2022/06/25 00:27:03;;;;;;;7.88;1.23;;;;;;;10.67;100.00;99266.03;6220129;23;20035;-76
2022/06/25 00:29:28;;;;;;;8.95;1.30;;;;;;;10.69;100.00;99273.94;6169666;23;20009;-75
2022/06/25 00:31:54;;;;;;;14.77;1.58;;;;;;;10.62;100.00;99275.13;6192173;23;20587;-75
2022/06/25 00:34:20;;;;;;;15.45;1.30;;;;;;;10.57;100.00;99272.47;6219858;23;20000;-76
2022/06/25 00:36:45;;;;;;;8.48;1.13;;;;;;;10.59;100.00;99281.19;6166941;23;20020;-75
2022/06/25 00:39:11;;;;;;;6.65;1.30;;;;;;;10.58;100.00;99289.69;6193706;23;20004;-76
2022/06/25 00:41:36;;;;;;;13.02;1.33;;;;;;;10.52;100.00;99280.72;6192296;23;19996;-74
2022/06/25 00:44:09;;;;;;;5.40;0.90;;;;;;;10.47;100.00;99283.56;6193223;23;20023;-76
2022/06/25 00:46:35;;;;;;;4.68;1.15;;;;;;;10.44;100.00;99295.88;6191344;23;20000;-75
2022/06/25 00:49:01;;;;;;;12.77;1.67;;;;;;;10.44;100.00;99297.78;6189991;23;20009;-75
2022/06/25 00:51:31;;;;;;;6.60;1.30;;;;;;;10.38;100.00;99290.75;6166072;23;20407;-76
2022/06/25 00:54:03;;;;;;;5.03;1.25;;;;;;;10.34;100.00;99289.72;6190985;23;20092;-74
2022/06/25 00:56:36;;;;;;;6.95;1.17;;;;;;;10.29;100.00;99294.13;6218647;23;20004;-75
2022/06/25 00:59:04;;;;;;;9.90;1.58;;;;;;;10.29;100.00;99310.50;6216281;23;20011;-77
2022/06/25 01:01:34;;;;;;;9.25;1.55;;;;;;;10.23;100.00;99292.53;6192858;23;20004;-76
2022/06/25 01:03:59;;;;;;;6.95;1.10;;;;;;;10.18;100.00;99314.47;6166943;23;20102;-78
2022/06/25 01:06:28;;;;;;;9.70;1.20;;;;;;;10.12;100.00;99310.97;6194111;23;20006;-75
2022/06/25 01:08:55;;;;;;;12.18;1.30;;;;;;;10.12;100.00;99318.38;6193160;23;20009;-75
2022/06/25 01:11:21;;;;;;;4.70;1.08;;;;;;;9.89;100.00;99284.47;6191168;23;20021;-77
2022/06/25 01:13:47;;;;;;;4.88;1.23;;;;;;;9.83;100.00;99285.59;6165150;23;20087;-74
2022/06/25 01:16:12;;;;;;;6.20;0.90;;;;;;;9.99;100.00;99316.28;6163367;23;20382;-75
2022/06/25 01:18:38;;;;;;;5.97;1.15;;;;;;;9.95;100.00;99311.41;6189775;23;20108;-75
2022/06/25 01:21:03;;;;;;;5.57;1.02;;;;;;;9.92;100.00;99317.47;6190379;23;20008;-77
2022/06/25 01:23:30;;;;;;;8.60;1.42;;;;;;;9.93;100.00;99318.28;6190682;23;20008;-74
2022/06/25 01:25:55;;;;;;;8.50;1.45;;;;;;;9.92;100.00;99316.66;6217238;23;20011;-77
2022/06/25 01:28:21;;;;;;;8.93;1.45;;;;;;;9.89;100.00;99315.31;6191055;23;20036;-77
2022/06/25 01:30:47;;;;;;;7.75;1.20;;;;;;;9.89;100.00;99323.50;6168024;23;20000;-76
2022/06/25 01:33:12;;;;;;;10.63;1.38;;;;;;;9.84;100.00;99312.66;6192764;23;20004;-76
2022/06/25 01:35:37;;;;;;;9.73;1.95;;;;;;;9.85;100.00;99322.44;6191860;23;20331;-75
2022/06/25 01:38:03;;;;;;;8.45;1.50;;;;;;;9.85;100.00;99327.09;6167214;23;20004;-76
2022/06/25 01:40:49;;;;;;;4.68;0.90;;;;;;;9.69;100.00;99315.50;6190525;23;20004;-76
2022/06/25 01:43:15;;;;;;;11.05;1.58;;;;;;;9.81;100.00;99331.50;6189380;23;20028;-77
2022/06/25 01:45:41;;;;;;;10.43;1.23;;;;;;;9.73;100.00;99343.88;6167356;23;20013;-77
2022/06/25 01:48:07;;;;;;;6.55;1.70;;;;;;;9.78;100.00;99343.81;6169765;23;20008;-78
2022/06/25 01:50:34;;;;;;;9.52;1.20;;;;;;;9.72;100.00;99347.69;6192357;23;20423;-77
2022/06/25 01:53:00;;;;;;;8.52;1.33;;;;;;;9.81;99.90;99351.41;6192393;23;20009;-77
2022/06/25 01:55:26;;;;;;;7.40;1.30;;;;;;;9.70;99.34;99336.25;6193654;23;20008;-77
2022/06/25 01:57:52;;;;;;;7.32;1.85;;;;;;;9.78;99.26;99354.72;6193338;23;20012;-76
2022/06/25 02:00:26;;;;;;;9.63;1.23;;;;;;;9.79;99.23;99353.63;6193925;23;20032;-77
2022/06/25 02:02:52;;;;;;;;;;;;;;;9.78;99.06;99354.72;6219212;23;20005;-77
2022/06/25 02:05:56;;;;;;;6.18;1.45;;;;;;;9.75;98.57;99349.84;6195017;23;19910;-77
2022/06/25 02:08:10;;;;;;;9.52;1.80;;;;;;;9.68;98.32;99354.81;6220067;23;20013;-77
2022/06/25 02:10:36;;;;;;;4.38;1.02;;;;;;;9.64;98.77;99351.84;6217579;23;20047;-74
2022/06/25 02:13:02;;;;;;;7.47;0.90;;;;;;;9.55;98.73;99348.94;6192118;23;20004;-77
2022/06/25 02:15:28;;;;;;;1.67;0.60;;;;;;;9.41;98.80;99342.50;6192259;23;19989;-77
2022/06/25 02:17:53;;;;;;;4.65;0.73;;;;;;;9.45;98.72;99359.94;6193138;23;20015;-76
2022/06/25 02:20:19;;;;;;;3.72;0.52;;;;;;;9.37;98.85;99355.06;6166081;23;20442;-77
2022/06/25 02:22:44;;;;;;;1.88;0.50;;;;;;;9.33;99.03;99348.53;6168184;23;20108;-76
2022/06/25 02:25:10;;;;;;;0.47;0.30;;;;;;;9.22;99.47;99351.34;6166591;23;20100;-77
2022/06/25 02:27:35;;;;;;;2.53;0.70;;;;;;;9.17;99.23;99354.13;6167274;23;20059;-77
2022/06/25 02:30:01;;;;;;;0.68;0.40;;;;;;;9.15;99.52;99359.03;6190948;23;20096;-76
2022/06/25 02:32:30;;;;;;;0.65;0.25;;;;;;;9.06;99.43;99352.53;6192762;23;20008;-76
2022/06/25 02:34:55;;;;;;;0.70;0.40;;;;;;;9.04;99.61;99360.22;6190858;23;20016;-76
2022/06/25 02:37:21;;;;;;;0.95;0.50;;;;;;;9.12;99.91;99365.03;6166960;23;20336;-76
2022/06/25 02:39:46;;;;;;;2.13;1.02;;;;;;;9.08;99.94;99363.97;6189695;23;20001;-76
2022/06/25 02:42:11;;;;;;;3.60;0.60;;;;;;;9.01;99.65;99363.47;6190149;23;20051;-77
2022/06/25 02:44:37;;;;;;;3.15;1.27;;;;;;;9.12;99.88;99373.22;6165869;23;20092;-76
2022/06/25 02:47:02;;;;;;;2.55;1.13;;;;;;;9.21;99.96;99377.00;6189347;23;20034;-75
2022/06/25 02:49:28;;;;;;;8.98;1.30;;;;;;;9.40;100.00;99370.88;6166369;23;20100;-74
2022/06/25 02:51:53;;;;;;;2.63;0.68;;;;;;;9.53;99.63;99375.66;6192243;23;20008;-75
2022/06/25 02:54:19;;;;;;;5.78;0.82;;;;;;;9.67;99.89;99377.78;6191941;23;20477;-75
2022/06/25 02:59:31;;;;;;;2.87;1.40;;;;;;;9.91;99.57;99375.91;6216717;23;20036;-75
2022/06/25 03:01:56;;;;;;;1.85;0.70;;;;;;;10.03;98.32;99374.72;6165127;23;20226;-75
2022/06/25 03:04:24;;;;;;;5.75;0.80;;;;;;;10.09;97.93;99371.66;6213966;23;20012;-75
2022/06/25 03:06:50;;;;;;;4.47;0.50;;;;;;;10.11;97.88;99371.38;6215022;23;20458;-75
2022/06/25 03:09:16;;;;;;;5.53;1.63;;;;;;;10.18;97.53;99380.03;6163740;23;20005;-76
2022/06/25 03:11:42;;;;;;;2.33;0.63;;;;;;;10.18;97.63;99365.53;6189821;23;20021;-76
2022/06/25 03:14:07;;;;;;;4.03;0.70;;;;;;;10.22;97.71;99378.34;6166894;23;20009;-76
2022/06/25 03:16:33;;;;;;;2.30;0.43;;;;;;;10.12;97.36;99375.72;6217767;23;20613;-74
2022/06/25 03:18:58;;;;;;;14.18;1.02;;;;;;;10.04;97.46;99384.53;6188754;23;20512;-74
2022/06/25 03:21:24;;;;;;;6.90;1.17;;;;;;;9.93;97.38;99383.84;6187765;23;20018;-73
2022/06/25 03:23:49;;;;;;;11.60;1.35;;;;;;;9.84;97.61;99385.53;6216910;23;20020;-76
2022/06/25 03:26:15;;;;;;;12.95;1.48;;;;;;;9.82;98.71;99383.09;6192151;23;20008;-77
2022/06/25 03:28:41;;;;;;;11.98;1.27;;;;;;;9.86;98.49;99384.16;6169699;23;20099;-78
2022/06/25 03:31:07;;;;;;;9.52;1.80;;;;;;;9.93;99.21;99383.84;6170117;23;20091;-76
2022/06/25 03:33:32;;;;;;;5.63;1.05;;;;;;;10.00;99.05;99383.47;6219089;23;20405;-74
2022/06/25 03:35:57;;;;;;;7.20;1.23;;;;;;;10.03;98.85;99383.72;6170657;23;20009;-76
2022/06/25 03:38:23;;;;;;;4.80;1.20;;;;;;;10.05;98.80;99394.38;6192071;23;20008;-77
2022/06/25 03:40:48;;;;;;;7.45;1.63;;;;;;;10.04;98.68;99395.47;6194014;23;20388;-76
2022/06/25 03:43:14;;;;;;;7.57;1.52;;;;;;;9.90;98.28;99393.41;6195282;23;20012;-78
2022/06/25 03:45:39;;;;;;;7.20;1.30;;;;;;;9.82;98.52;99393.22;6194702;23;20010;-76
2022/06/25 03:48:05;;;;;;;2.67;0.85;;;;;;;9.70;98.39;99399.03;6193489;23;20012;-77
2022/06/25 03:50:31;;;;;;;7.70;1.15;;;;;;;9.66;98.79;99404.25;6195198;23;20415;-77
2022/06/25 03:52:56;;;;;;;7.57;1.50;;;;;;;9.60;99.26;99403.47;6193444;23;20408;-77
2022/06/25 03:55:22;;;;;;;7.45;1.50;;;;;;;9.51;99.64;99396.19;6195040;23;20032;-77
2022/06/25 03:57:47;;;;;;;3.97;1.13;;;;;;;9.56;99.74;99396.97;6191150;23;20455;-76
2022/06/25 04:00:14;;;;;;;9.13;1.40;;;;;;;9.60;99.73;99402.66;6170358;23;20392;-75
2022/06/25 04:02:40;;;;;;;5.95;1.25;;;;;;;9.57;99.90;99406.75;6220139;23;20028;-75
2022/06/25 04:05:06;;;;;;;2.10;0.82;;;;;;;9.53;99.32;99400.22;6193900;23;20340;-75
2022/06/25 04:07:32;;;;;;;5.95;1.63;;;;;;;9.45;99.70;99400.84;6193732;23;20058;-75
2022/06/25 04:09:58;;;;;;;4.28;1.02;;;;;;;9.43;99.86;99403.03;6194045;23;20371;-75
2022/06/25 04:12:23;;;;;;;5.00;0.90;;;;;;;9.49;100.00;99404.66;6194070;23;20017;-75
2022/06/25 04:14:49;;;;;;;7.63;1.13;;;;;;;9.48;100.00;99404.94;6194194;23;20020;-77
2022/06/25 04:17:14;;;;;;;5.03;1.23;;;;;;;9.54;100.00;99404.59;6193411;23;20012;-77
2022/06/25 04:19:40;;;;;;;6.20;1.20;;;;;;;9.52;99.92;99406.81;6220591;23;20065;-76
2022/06/25 04:22:12;;;;;;;15.25;1.40;;;;;;;9.49;100.00;99404.66;6192702;23;20063;-76
2022/06/25 04:24:39;;;;;;;8.43;1.55;;;;;;;9.48;100.00;99394.81;6221204;23;20011;-77
2022/06/25 04:27:06;;;;;;;4.28;1.13;;;;;;;9.58;100.00;99399.41;6218388;23;20423;-76
2022/06/25 04:29:34;;;;;;;7.65;1.20;;;;;;;9.63;100.00;99407.53;6218980;23;20009;-76
2022/06/25 04:31:59;;;;;;;12.27;1.42;;;;;;;9.67;100.00;99403.16;6193559;23;20123;-76
2022/06/25 04:34:25;;;;;;;12.35;2.00;;;;;;;9.81;100.00;99414.22;6192696;23;20008;-77
2022/06/25 04:36:51;;;;;;;11.77;1.98;;;;;;;9.82;100.00;99399.47;6193053;23;20011;-77
2022/06/25 04:39:17;;;;;;;9.85;2.05;;;;;;;9.95;100.00;99407.00;6192272;23;20005;-76
2022/06/25 04:41:53;;;;;;;;;;;;;;;;;;;;;
2022/06/25 04:44:28;;;;;;;12.73;2.03;;;;;;;10.35;100.00;99422.50;6217915;23;20079;-74
2022/06/25 04:47:01;;;;;;;13.38;2.97;;;;;;;10.48;100.00;99413.63;6218762;23;20001;-76
2022/06/25 04:49:36;;;;;;;13.52;2.30;;;;;;;10.62;99.38;99417.28;6219539;23;20015;-77
2022/06/25 04:52:02;;;;;;;13.38;1.90;;;;;;;10.69;98.64;99410.66;6194349;23;20020;-77
2022/06/25 04:54:28;;;;;;;11.35;2.10;;;;;;;10.94;98.91;99426.75;6167432;23;20020;-76
2022/06/25 04:56:56;;;;;;;15.57;2.35;;;;;;;10.93;97.89;99400.50;6217111;23;20111;-75
2022/06/25 04:59:21;;;;;;;17.10;2.83;;;;;;;11.10;97.24;99401.97;6195231;23;20016;-76
2022/06/25 05:01:49;;;;;;;14.05;2.25;;;;;;;11.12;95.68;99413.41;6191277;23;20624;-79
2022/06/25 05:04:14;;;;;;;22.42;2.55;;;;;;;11.32;96.26;99432.28;6217453;23;20052;-77
2022/06/25 05:06:40;;;;;;;25.95;2.78;;;;;;;11.41;95.12;99428.88;6169509;23;20004;-75
2022/06/25 05:09:05;;;;;;;24.20;2.72;;;;;;;11.35;94.63;99428.94;6192407;23;20033;-78
2022/06/25 05:11:31;;;;;;;19.88;3.13;;;;;;;11.34;94.97;99430.06;6149090;23;20012;-74
2022/06/25 05:13:56;;;;;;;25.30;3.28;;;;;;;11.38;94.96;99437.69;6137426;23;20016;-75
2022/06/25 05:16:24;;;;;;;12.35;1.80;;;;;;;11.31;95.48;99427.91;6187777;23;20009;-75
2022/06/25 05:18:53;;;;;;;12.32;2.05;;;;;;;11.39;96.01;99436.56;6186687;23;20025;-75
2022/06/25 05:21:18;;;;;;;20.55;2.88;;;;;;;11.41;95.19;99437.09;6187392;23;20060;-75
2022/06/25 05:23:45;;;;;;;8.40;1.92;;;;;;;11.49;95.53;99439.16;6186032;23;20004;-76
2022/06/25 05:26:10;;;;;;;15.85;2.28;;;;;;;11.52;95.30;99433.09;6186669;23;20085;-75
2022/06/25 05:28:36;;;;;;;23.20;3.38;;;;;;;11.60;94.86;99435.16;6186241;23;20044;-76
2022/06/25 05:31:02;;;;;;;12.13;2.10;;;;;;;11.76;95.32;99449.44;6160813;23;20017;-75
2022/06/25 05:33:27;;;;;;;8.23;1.92;;;;;;;11.96;94.21;99456.56;6161470;23;20039;-76
2022/06/25 05:35:53;;;;;;;17.27;2.90;;;;;;;12.14;93.57;99445.84;6160722;23;20091;-75
2022/06/25 05:38:22;;;;;;;26.10;4.38;;;;;;;12.50;91.45;99457.00;6161585;23;20017;-75
2022/06/25 05:40:47;;;;;;;15.00;2.30;;;;;;;12.67;89.62;99463.81;6161081;23;20036;-74
2022/06/25 05:43:13;;;;;;;14.60;2.42;;;;;;;12.93;89.83;99453.97;6187009;23;20005;-75
2022/06/25 05:45:38;;;;;;;26.15;3.22;;;;;;;13.18;88.14;99459.25;6187601;23;20044;-75
2022/06/25 05:48:04;;;;;;;21.75;2.92;;;;;;;13.33;86.99;99467.16;6186801;23;20008;-75
2022/06/25 05:50:31;;;;;;;16.42;2.85;;;;;;;13.18;85.67;99464.72;6162598;23;20452;-75
2022/06/25 05:52:57;;;;;;;19.45;2.65;;;;;;;13.22;85.93;99465.75;6187344;23;20316;-75
2022/06/25 05:55:24;;;;;;;26.50;3.90;;;;;;;13.23;85.16;99473.66;6163326;23;20020;-76
2022/06/25 05:57:50;;;;;;;21.95;3.60;;;;;;;12.97;85.73;99473.38;6188224;23;20015;-75
2022/06/25 06:00:16;;;;;;;11.88;2.47;;;;;;;12.73;86.56;99468.91;6161226;23;20039;-76
2022/06/25 06:02:42;;;;;;;18.83;3.00;;;;;;;12.64;87.31;99467.16;6187352;23;20009;-74
2022/06/25 06:05:08;;;;;;;14.73;2.42;;;;;;;12.65;87.64;99479.78;6136889;23;20447;-76
2022/06/25 06:07:34;;;;;;;12.32;2.03;;;;;;;12.77;87.66;99473.78;6188592;23;20107;-76
2022/06/25 06:10:06;;;;;;;10.50;2.35;;;;;;;12.87;86.74;99470.84;6191692;23;20032;-76
2022/06/25 06:12:34;;;;;;;17.48;3.65;;;;;;;12.61;86.86;99463.09;6194406;23;20478;-76
2022/06/25 06:15:03;;;;;;;17.10;3.60;;;;;;;12.62;86.96;99480.38;6220112;23;20020;-76
2022/06/25 06:17:55;;;;;;;16.55;3.22;;;;;;;12.53;87.07;99464.63;6193189;23;20038;-75
2022/06/25 06:20:27;;;;;;;13.63;2.92;;;;;;;12.57;86.99;99462.06;6219220;23;19993;-76
2022/06/25 06:23:03;;;;;;;;;;;;;;;;;;;;;
2022/06/25 06:25:46;;;;;;;;;;;;;;;;;;;;;
2022/06/25 06:28:16;;;;;;;16.00;4.45;;;;;;;12.73;86.06;99463.44;6218607;23;20115;-75
2022/06/25 06:30:41;;;;;;;10.40;2.63;;;;;;;12.95;85.99;99508.53;6191881;23;20000;-75
2022/06/25 06:33:07;;;;;;;10.40;2.42;;;;;;;12.94;85.75;99498.69;6165288;23;20108;-74
2022/06/25 06:35:40;;;;;;;18.48;3.78;;;;;;;12.89;84.05;99496.03;6166232;23;20012;-75
2022/06/25 06:38:06;;;;;;;21.50;4.03;;;;;;;12.97;84.92;99509.06;6217519;23;20088;-74
2022/06/25 06:40:31;;;;;;;16.85;3.03;;;;;;;13.00;84.54;99502.97;6218828;23;20331;-76
2022/06/25 06:42:57;;;;;;;24.88;3.13;;;;;;;13.21;83.71;99505.28;6187357;23;20032;-76
2022/06/25 06:45:22;;;;;;;19.65;3.47;;;;;;;13.58;81.93;99511.66;6166220;23;20004;-75
2022/06/25 06:47:48;;;;;;;11.65;2.38;;;;;;;13.63;81.76;99492.34;6161737;23;20009;-74
2022/06/25 06:50:14;;;;;;;14.98;3.25;;;;;;;13.77;81.78;99504.09;6191470;23;20475;-75
2022/06/25 06:52:40;;;;;;;15.40;2.92;;;;;;;13.91;79.85;99503.25;6190707;23;20000;-75
2022/06/25 06:55:06;;;;;;;19.15;3.53;;;;;;;14.08;79.17;99508.88;6216459;23;20081;-73
2022/06/25 06:57:32;;;;;;;15.45;2.85;;;;;;;14.33;77.17;99503.88;6189928;23;20074;-73
2022/06/25 06:59:58;;;;;;;18.33;2.92;;;;;;;14.73;76.02;99511.41;6190416;23;20375;-74
2022/06/25 07:02:25;;;;;;;18.52;3.08;;;;;;;15.05;74.98;99510.25;6216383;23;20039;-74
2022/06/25 07:04:52;;;;;;;19.40;3.03;;;;;;;15.06;74.55;99514.63;6190431;23;20016;-75
2022/06/25 07:07:17;;;;;;;20.30;3.45;;;;;;;15.00;74.63;99515.91;6214364;23;20009;-71
2022/06/25 07:09:43;;;;;;;11.13;2.75;;;;;;;14.98;72.87;99520.91;6191666;23;20072;-75
2022/06/25 07:12:08;;;;;;;16.77;3.30;;;;;;;14.99;72.64;99517.03;6188422;23;20005;-72
2022/06/25 07:14:34;;;;;;;17.58;2.70;;;;;;;15.13;70.44;99515.00;6165940;23;20008;-73
2022/06/25 07:16:59;;;;;;;18.40;3.03;;;;;;;15.13;70.96;99519.69;6161923;23;20015;-74
2022/06/25 07:19:25;;;;;;;11.50;3.10;;;;;;;15.24;70.73;99511.94;6191811;23;20005;-74
2022/06/25 07:21:52;;;;;;;17.10;3.28;;;;;;;15.27;71.64;99520.38;6218704;23;20005;-74
2022/06/25 07:24:17;;;;;;;16.20;3.45;;;;;;;15.25;68.97;99519.09;6189474;23;20012;-73
2022/06/25 07:26:42;;;;;;;17.80;2.35;;;;;;;15.38;68.35;99514.59;6162323;23;20355;-73
2022/06/25 07:29:08;;;;;;;13.52;2.42;;;;;;;15.57;67.39;99506.84;6165984;23;20052;-73
2022/06/25 07:31:33;;;;;;;11.30;2.17;;;;;;;15.71;67.05;99521.28;6192402;23;20456;-74
2022/06/25 07:33:59;;;;;;;12.32;2.75;;;;;;;15.77;67.11;99519.19;6217391;23;20380;-75
2022/06/25 07:36:28;;;;;;;19.08;2.70;;;;;;;16.06;65.99;99526.00;6166365;23;20032;-75
2022/06/25 07:38:54;;;;;;;13.73;3.17;;;;;;;16.39;64.39;99515.28;6166002;23;20039;-77
2022/06/25 07:41:22;;;;;;;10.73;2.25;;;;;;;16.56;63.78;99533.75;6161451;23;20009;-72
2022/06/25 07:43:57;;;;;;;12.60;2.38;;;;;;;16.15;62.37;99510.28;6158519;23;20015;-75
2022/06/25 07:46:23;;;;;;;11.13;2.10;;;;;;;16.05;63.11;99549.22;6185416;23;20005;-74
2022/06/25 07:48:48;;;;;;;13.35;2.75;;;;;;;15.86;62.75;99536.56;6216538;23;20060;-73
2022/06/25 07:54:01;;;;;;;15.10;2.30;;;;;;;15.47;64.73;99535.50;6164957;23;20008;-73
2022/06/25 07:56:27;;;;;;;14.88;2.47;;;;;;;15.28;65.21;99526.69;6187773;23;20382;-74
2022/06/25 07:58:52;;;;;;;15.35;2.63;;;;;;;15.39;65.57;99550.06;6216456;23;20079;-74
2022/06/25 08:01:18;;;;;;;16.30;3.45;;;;;;;15.61;65.53;99540.06;6188868;23;20009;-75
2022/06/25 08:03:43;;;;;;;15.15;2.50;;;;;;;15.84;63.22;99571.94;6167030;23;20024;-75
2022/06/25 08:06:10;;;;;;;17.40;2.42;;;;;;;15.87;63.54;99538.19;6164567;23;20013;-74
2022/06/25 08:08:35;;;;;;;14.07;2.30;;;;;;;15.85;62.99;99545.16;6190313;23;20004;-76
2022/06/25 08:11:01;;;;;;;7.78;2.45;;;;;;;15.61;62.97;99540.88;6212536;23;20016;-75
2022/06/25 08:13:26;;;;;;;10.63;2.50;;;;;;;15.56;63.10;99554.81;6164376;23;20015;-75
2022/06/25 08:15:52;;;;;;;11.05;2.40;;;;;;;15.61;63.34;99551.06;6189386;23;19992;-75
2022/06/25 08:18:19;;;;;;;13.15;2.20;;;;;;;15.65;62.53;99541.03;6216926;23;20004;-74
2022/06/25 08:20:44;;;;;;;11.68;2.45;;;;;;;15.78;62.14;99545.63;6165124;23;20000;-76
2022/06/25 08:23:10;;;;;;;13.52;2.55;;;;;;;16.00;61.05;99547.44;6215486;23;20494;-74
2022/06/25 08:25:36;;;;;;;7.65;2.47;;;;;;;16.17;60.60;99552.13;6214886;23;20012;-75
2022/06/25 08:28:24;;;;;;;14.15;2.83;;;;;;;16.04;59.76;99548.41;6214262;23;20005;-74
2022/06/25 08:30:50;;;;;;;14.77;2.45;;;;;;;15.74;60.61;99550.16;6215593;23;20073;-74
2022/06/25 08:33:15;;;;;;;12.68;3.25;;;;;;;15.61;61.25;99540.06;6164653;23;20415;-75
2022/06/25 08:35:42;;;;;;;16.17;2.70;;;;;;;15.82;61.71;99540.28;6163986;23;20091;-74
2022/06/25 08:38:18;;;;;;;;;;;;;;;;;;;;;
2022/06/25 08:40:44;;;;;;;16.70;2.50;;;;;;;16.23;59.19;99550.84;6215550;23;20080;-74
2022/06/25 08:43:09;;;;;;;11.95;2.47;;;;;;;16.55;59.06;99551.44;6212318;23;20024;-75
2022/06/25 08:46:08;;;;;;;;;;;;;;;;;;;;;
2022/06/25 08:48:37;;;;;;;13.90;2.53;;;;;;;17.11;56.18;99539.63;6215219;23;20096;-74
2022/06/25 08:51:13;;;;;;;8.77;1.83;;;;;;;17.31;55.44;99549.13;6189216;23;20013;-74
2022/06/25 08:53:39;;;;;;;12.43;2.17;;;;;;;17.33;55.60;99524.72;6189018;23;20010;-73
2022/06/25 08:56:05;;;;;;;6.13;1.83;;;;;;;17.83;55.57;99541.66;6165614;23;20052;-74
2022/06/25 08:58:31;;;;;;;11.90;2.10;;;;;;;18.02;54.47;99552.28;6190617;23;20008;-74
2022/06/25 09:00:59;;;;;;;13.98;2.83;;;;;;;18.33;53.15;99556.59;6188271;23;20379;-75
2022/06/25 09:03:25;;;;;;;15.32;2.30;;;;;;;18.23;52.92;99552.28;6214232;23;19996;-73
2022/06/25 09:05:53;;;;;;;8.52;2.13;;;;;;;18.19;52.55;99554.91;6188744;23;20014;-74
2022/06/25 09:08:18;;;;;;;9.77;2.80;;;;;;;18.41;50.84;99545.47;6187404;23;20000;-74
2022/06/25 09:10:46;;;;;;;9.60;1.83;;;;;;;18.81;49.88;99555.94;6213569;23;20047;-74
2022/06/25 09:13:12;;;;;;;6.90;1.90;;;;;;;19.13;49.08;99553.50;6216855;23;20032;-73
2022/06/25 09:15:44;;;;;;;8.48;2.25;;;;;;;19.39;48.25;99559.84;6163097;23;20012;-74
2022/06/25 09:18:11;;;;;;;12.38;2.80;;;;;;;19.31;48.54;99559.63;6216212;23;20016;-75
2022/06/25 09:21:01;;;;;;;12.23;2.03;;;;;;;18.94;48.59;99553.22;6165673;23;20003;-74
2022/06/25 09:23:32;;;;;;;6.20;1.80;;;;;;;18.72;49.67;99548.88;6189606;23;20031;-75
2022/06/25 09:26:09;;;;;;;14.10;2.15;;;;;;;18.61;48.47;99554.84;6212826;23;20000;-75
2022/06/25 09:28:40;;;;;;;7.32;1.65;;;;;;;18.49;46.95;99557.59;6189964;23;20482;-73
2022/06/25 09:31:07;;;;;;;10.43;2.30;;;;;;;18.45;47.99;99553.88;6214514;23;19996;-74
2022/06/25 09:33:34;;;;;;;10.02;1.80;;;;;;;18.99;47.60;99548.25;6188638;23;20004;-74
2022/06/25 09:35:59;;;;;;;10.55;2.22;;;;;;;19.07;48.04;99559.59;6188549;23;20087;-74
2022/06/25 09:38:28;;;;;;;9.00;1.85;;;;;;;19.01;47.87;99550.69;6189606;23;20551;-74
2022/06/25 09:40:59;;;;;;;13.45;2.13;;;;;;;19.40;47.04;99567.03;6214416;23;20050;-77
2022/06/25 09:43:25;;;;;;;10.20;1.75;;;;;;;19.48;46.05;99557.78;6186769;23;20005;-73
2022/06/25 09:45:53;;;;;;;8.70;2.08;;;;;;;19.51;46.89;99557.09;6215051;23;20416;-74
2022/06/25 09:48:24;;;;;;;10.48;1.85;;;;;;;19.25;47.52;99560.19;6216265;23;20099;-74
2022/06/25 09:51:26;;;;;;;10.23;1.83;;;;;;;19.07;48.21;99567.91;6187122;23;20015;-75
2022/06/25 09:54:00;;;;;;;8.07;1.77;;;;;;;19.00;47.68;99543.56;6188522;23;20108;-73
2022/06/25 09:56:28;;;;;;;;;;;;;;;19.34;47.32;99542.28;6189090;23;20015;-73
2022/06/25 09:58:54;;;;;;;9.30;1.70;;;;;;;19.34;46.68;99553.38;6215505;23;19904;-75
2022/06/25 10:01:23;;;;;;;7.75;1.80;;;;;;;19.20;45.98;99558.44;6187645;23;20012;-73
2022/06/25 10:03:50;;;;;;;7.82;1.80;;;;;;;19.00;46.86;99546.31;6163371;23;20008;-74
2022/06/25 10:06:18;;;;;;;11.82;1.80;;;;;;;19.10;46.77;99542.28;6185837;23;20020;-74
2022/06/25 10:08:55;;;;;;;10.73;1.88;;;;;;;19.39;44.79;99545.97;6214988;23;20004;-74
2022/06/25 10:11:27;;;;;;;4.88;1.27;;;;;;;20.47;42.38;99554.78;6187847;23;20095;-74
2022/06/25 10:13:53;;;;;;;4.78;1.33;;;;;;;21.84;38.13;99544.34;6213966;23;20008;-74
2022/06/25 10:16:24;;;;;;;8.18;1.58;;;;;;;21.04;39.04;99550.78;6162010;23;20020;-74
2022/06/25 10:18:51;;;;;;;8.40;1.95;;;;;;;19.97;42.22;99560.50;6210886;23;20170;-75
2022/06/25 10:21:18;;;;;;;14.18;2.20;;;;;;;18.65;50.33;99566.84;6213367;23;19997;-73
2022/06/25 10:23:45;;;;;;;9.32;1.80;;;;;;;17.06;59.43;99570.19;6186197;23;20391;-74
2022/06/25 10:26:11;;;;;;;8.82;1.67;;;;;;;15.63;68.24;99563.41;6189637;23;20440;-74
2022/06/25 10:28:37;;;;;;;8.35;2.10;;;;;;;14.52;75.84;99572.44;6190524;23;20008;-76
2022/06/25 10:31:09;;;;;;;12.35;2.85;;;;;;;13.82;85.14;99562.81;6192845;23;20340;-76
2022/06/25 10:34:03;;;;;;;10.88;2.30;;;;;;;13.43;90.90;99565.81;6190035;23;20009;-75
2022/06/25 10:36:38;;;;;;;8.48;2.10;;;;;;;13.88;94.80;99558.81;6165237;23;20091;-74
2022/06/25 10:39:22;;;;;;;4.00;1.83;;;;;;;15.40;92.36;99557.19;6219105;23;20001;-73
2022/06/25 10:45:06;;;;;;;11.02;2.47;;;;;;;16.71;84.89;99559.22;6215148;23;20020;-74
2022/06/25 10:47:48;;;;;;;9.82;1.73;;;;;;;17.95;76.67;99563.91;6190488;23;20347;-73
2022/06/25 10:50:22;;;;;;;9.70;2.03;;;;;;;17.03;75.14;99557.06;6218032;23;20004;-73
2022/06/25 10:53:03;;;;;;;;;;;;;;;16.34;76.34;99561.53;6216940;23;20419;-73
2022/06/25 10:55:38;;;;;;;9.98;2.47;;;;;;;16.64;75.58;99572.72;6194047;23;19904;-73
2022/06/25 10:58:24;;;;;;;8.45;1.77;;;;;;;17.58;75.69;99556.13;6221326;23;20021;-75
2022/06/25 11:00:58;;;;;;;10.13;1.90;;;;;;;19.60;68.91;99554.19;6215552;23;20000;-73
2022/06/25 11:03:27;;;;;;;6.10;1.63;;;;;;;19.73;61.40;99585.47;6213262;23;20008;-74
2022/06/25 11:06:00;;;;;;;10.77;1.45;;;;;;;18.76;63.44;99563.66;6188844;23;20013;-73
2022/06/25 11:08:39;;;;;;;7.72;1.17;;;;;;;18.26;66.40;99557.94;6188278;23;20008;-74
2022/06/25 11:11:05;;;;;;;12.70;1.98;;;;;;;17.94;66.41;99559.50;6189727;23;20434;-74
2022/06/25 11:13:32;;;;;;;8.70;2.53;;;;;;;19.18;58.87;99566.31;6217056;23;20008;-73
2022/06/25 11:15:58;;;;;;;11.75;1.80;;;;;;;21.73;47.06;99561.59;6191830;23;20039;-73
2022/06/25 11:18:24;;;;;;;6.03;1.35;;;;;;;24.29;46.89;99571.75;6190878;23;20036;-72
2022/06/25 11:20:51;;;;;;;7.25;1.33;;;;;;;24.89;43.02;99558.88;6220771;23;20397;-73
2022/06/25 11:23:17;;;;;;;7.35;1.92;;;;;;;22.87;45.22;99560.75;6169493;23;20127;-73
2022/06/25 11:28:51;;;;;;;9.30;1.83;;;;;;;20.78;49.53;99567.16;6217891;23;20081;-74
2022/06/25 11:31:24;;;;;;;13.85;2.20;;;;;;;23.41;41.71;99573.66;6214291;23;20005;-73
2022/06/25 11:33:52;;;;;;;10.40;1.83;;;;;;;24.76;41.28;99582.69;6217168;23;20194;-73
2022/06/25 11:36:20;;;;;;;7.45;1.75;;;;;;;27.85;35.16;99583.34;6189480;23;20001;-73
2022/06/25 11:39:03;;;;;;;6.97;1.70;;;;;;;28.68;31.25;99575.47;6189595;23;20015;-74
2022/06/25 11:41:35;;;;;;;10.05;1.63;;;;;;;29.99;31.91;99592.94;6217045;23;20008;-72
2022/06/25 11:44:05;;;;;;;5.18;1.73;;;;;;;31.00;27.17;99577.56;6189603;23;20308;-75
2022/06/25 11:46:34;;;;;;;7.97;1.88;;;;;;;32.55;24.61;99588.94;6165731;23;20586;-74
2022/06/25 11:49:11;;;;;;;12.43;2.17;;;;;;;33.56;23.09;99578.91;6190054;23;20011;-74
2022/06/25 11:51:43;;;;;;;5.68;2.20;;;;;;;33.48;22.47;99588.81;6217089;23;20024;-72
2022/06/25 11:54:22;;;;;;;10.15;1.80;;;;;;;33.76;21.30;99569.50;6216081;23;20054;-73
2022/06/25 11:56:55;;;;;;;6.80;2.00;;;;;;;31.09;24.10;99571.38;6215956;23;20611;-73
2022/06/25 11:59:38;;;;;;;8.18;2.15;;;;;;;28.28;27.75;99555.13;6216195;23;20016;-74